createdAt,value
2024-02-28T00:01:24.898Z,99313.47
2024-02-28T00:05:27.022Z,99312.19
2024-02-28T00:09:29.361Z,99311.75
2024-02-28T00:13:32.866Z,99310.50
2024-02-28T00:17:34.969Z,99318.03
2024-02-28T00:21:37.100Z,99313.44
2024-02-28T00:25:39.364Z,99309.69
2024-02-28T00:29:43.572Z,99307.59
2024-02-28T00:33:45.543Z,99316.34
2024-02-28T00:37:47.962Z,99320.56
2024-02-28T00:41:50.182Z,99322.63
2024-02-28T00:45:53.910Z,99327.19
2024-02-28T00:49:56.030Z,99334.69
2024-02-28T00:53:58.124Z,99329.91
2024-02-28T00:58:00.480Z,99329.69
2024-02-28T01:02:04.170Z,99327.84
2024-02-28T01:06:06.455Z,99335.09
2024-02-28T01:10:09.177Z,99330.13
2024-02-28T01:14:11.388Z,99341.38
2024-02-28T01:18:15.031Z,99332.19
2024-02-28T01:22:17.136Z,99344.47
2024-02-28T01:26:19.015Z,99337.84
2024-02-28T01:30:21.052Z,99340.72
2024-02-28T01:34:24.396Z,99325.13
2024-02-28T01:38:26.651Z,99313.84
2024-02-28T01:42:29.129Z,99313.22
2024-02-28T01:46:31.751Z,99308.22
2024-02-28T01:50:35.231Z,99308.84
2024-02-28T01:54:37.559Z,99310.94
2024-02-28T01:58:41.026Z,99303.84
2024-02-28T02:02:43.540Z,99304.91
2024-02-28T02:06:47.100Z,99301.38
2024-02-28T02:10:49.168Z,99304.28
2024-02-28T02:14:51.572Z,99305.53
2024-02-28T02:18:53.760Z,99300.28
2024-02-28T02:22:57.553Z,99306.38
2024-02-28T02:26:59.820Z,99303.00
2024-02-28T02:31:02.000Z,99299.66
2024-02-28T02:35:05.140Z,99310.09
2024-02-28T02:39:08.668Z,99303.19
2024-02-28T02:43:10.666Z,99310.47
2024-02-28T02:47:12.768Z,99307.53
2024-02-28T02:51:14.733Z,99305.06
2024-02-28T02:55:18.155Z,99310.84
2024-02-28T02:59:20.289Z,99312.97
2024-02-28T03:03:22.482Z,99321.28
2024-02-28T03:07:24.764Z,99323.72
2024-02-28T03:11:28.302Z,99322.91
2024-02-28T03:15:30.380Z,99335.38
2024-02-28T03:19:32.647Z,99329.97
2024-02-28T03:23:35.005Z,99338.72
2024-02-28T03:27:38.434Z,99345.38
2024-02-28T03:31:40.240Z,99348.34
2024-02-28T03:35:42.409Z,99346.66
2024-02-28T03:39:44.525Z,99360.31
2024-02-28T03:43:47.924Z,99362.66
2024-02-28T03:47:50.487Z,99364.06
2024-02-28T03:51:52.560Z,99384.44
2024-02-28T03:55:54.608Z,99388.63
2024-02-28T03:59:58.048Z,99381.88
2024-02-28T04:04:00.193Z,99396.53
2024-02-28T04:08:04.623Z,99398.47
2024-02-28T04:12:09.875Z,99401.03
2024-02-28T04:16:13.859Z,99410.34
2024-02-28T04:20:16.415Z,99430.16
2024-02-28T04:24:18.659Z,99436.88
2024-02-28T04:28:20.839Z,99444.34
2024-02-28T04:32:24.060Z,99438.50
2024-02-28T04:36:26.085Z,99440.84
2024-02-28T04:40:28.041Z,99443.56
2024-02-28T04:44:30.824Z,99441.88
2024-02-28T04:48:34.433Z,99451.94
2024-02-28T04:52:36.577Z,99458.03
2024-02-28T04:56:41.151Z,99446.34
2024-02-28T05:00:43.174Z,99442.84
2024-02-28T05:04:46.617Z,99454.72
2024-02-28T05:08:48.705Z,99452.41
2024-02-28T05:12:51.077Z,99460.59
2024-02-28T05:16:53.383Z,99463.25
2024-02-28T05:20:57.285Z,99462.19
2024-02-28T05:24:59.349Z,99473.84
2024-02-28T05:29:01.429Z,99480.19
2024-02-28T05:33:04.897Z,99479.63
2024-02-28T05:37:08.680Z,99482.53
2024-02-28T05:41:10.900Z,99478.84
2024-02-28T05:45:12.965Z,99481.50
2024-02-28T05:49:14.971Z,99481.88
2024-02-28T05:53:18.546Z,99481.19
2024-02-28T05:57:20.677Z,99490.13
2024-02-28T06:01:22.943Z,99495.78
2024-02-28T06:05:25.085Z,99509.22
2024-02-28T06:09:28.607Z,99504.16
2024-02-28T06:13:30.948Z,99500.78
2024-02-28T06:17:32.914Z,99508.28
2024-02-28T06:21:35.355Z,99512.91
2024-02-28T06:25:38.647Z,99518.06
2024-02-28T06:29:40.909Z,99524.75
2024-02-28T06:33:43.017Z,99527.91
2024-02-28T06:37:45.160Z,99535.72
2024-02-28T06:41:48.660Z,99539.81
2024-02-28T06:45:50.962Z,99549.81
2024-02-28T06:49:53.022Z,99552.72
2024-02-28T06:53:55.282Z,99550.66
2024-02-28T06:57:59.111Z,99558.75
2024-02-28T07:02:01.441Z,99563.06
2024-02-28T07:06:03.846Z,99561.09
2024-02-28T07:10:07.289Z,99561.78
2024-02-28T07:14:11.040Z,99561.88
2024-02-28T07:18:13.338Z,99557.50
2024-02-28T07:22:15.678Z,99560.19
2024-02-28T07:26:26.508Z,99553.16
2024-02-28T07:30:32.025Z,99571.09
2024-02-28T07:34:34.170Z,99560.97
2024-02-28T07:38:36.174Z,99567.69
2024-02-28T07:42:38.167Z,99564.44
2024-02-28T07:46:43.663Z,99565.97
2024-02-28T07:50:46.076Z,99566.44
2024-02-28T07:54:48.097Z,99572.97
2024-02-28T07:58:50.316Z,99585.66
2024-02-28T08:02:53.845Z,99584.31
2024-02-28T08:06:56.157Z,99602.59
2024-02-28T08:10:58.286Z,99591.59
2024-02-28T08:15:00.403Z,99602.84
2024-02-28T08:19:04.272Z,99616.00
2024-02-28T08:23:06.590Z,99621.09
2024-02-28T08:27:08.548Z,99614.06
2024-02-28T08:31:11.002Z,99611.66
2024-02-28T08:35:14.722Z,99623.66
2024-02-28T08:39:16.907Z,99612.44
2024-02-28T08:43:18.974Z,99619.28
2024-02-28T08:47:24.310Z,99624.16
2024-02-28T08:51:27.872Z,99625.72
2024-02-28T08:55:30.020Z,99623.16
2024-02-28T08:59:32.134Z,99629.97
2024-02-28T09:03:34.309Z,99639.56
2024-02-28T09:07:37.770Z,99625.06
2024-02-28T09:11:39.936Z,99624.56
2024-02-28T09:15:42.074Z,99615.53
2024-02-28T09:19:44.110Z,99620.81
2024-02-28T09:23:47.291Z,99624.56
2024-02-28T09:27:49.208Z,99619.41
2024-02-28T09:31:52.040Z,99626.72
2024-02-28T09:35:54.246Z,99630.34
2024-02-28T09:39:57.768Z,99637.81
2024-02-28T09:44:03.402Z,99637.13
2024-02-28T09:48:07.097Z,99640.78
2024-02-28T09:52:09.233Z,99654.31
2024-02-28T09:56:14.208Z,99649.16
2024-02-28T10:00:19.778Z,99652.25
2024-02-28T10:04:22.445Z,99658.56
2024-02-28T10:08:24.615Z,99657.91
2024-02-28T10:12:28.151Z,99679.56
2024-02-28T10:16:30.925Z,99678.00
2024-02-28T10:20:33.610Z,99689.97
2024-02-28T10:24:36.077Z,99699.47
2024-02-28T10:28:40.227Z,99711.88
2024-02-28T10:32:49.713Z,99710.94
2024-02-28T10:36:52.957Z,99715.88
2024-02-28T10:40:55.969Z,99723.53
2024-02-28T10:45:10.283Z,99724.66
2024-02-28T10:49:21.029Z,99728.03
2024-02-28T10:53:29.161Z,99716.75
2024-02-28T10:57:34.676Z,99729.41
2024-02-28T11:01:40.342Z,99721.00
2024-02-28T11:05:43.591Z,99717.00
2024-02-28T11:09:46.417Z,99715.72
2024-02-28T11:13:55.436Z,99716.31
2024-02-28T11:18:08.691Z,99720.03
2024-02-28T11:22:12.948Z,99725.38
2024-02-28T11:26:15.354Z,99721.28
2024-02-28T11:30:17.571Z,99725.00
2024-02-28T11:34:21.541Z,99730.44
2024-02-28T11:38:25.818Z,99727.47
2024-02-28T11:42:28.042Z,99735.56
2024-02-28T11:46:30.316Z,99728.94
2024-02-28T11:50:33.526Z,99731.06
2024-02-28T11:54:35.719Z,99732.94
2024-02-28T11:58:37.782Z,99730.56
2024-02-28T12:02:40.056Z,99730.28
2024-02-28T12:06:44.155Z,99735.22
2024-02-28T12:10:46.749Z,99730.56
2024-02-28T12:14:49.430Z,99725.66
2024-02-28T12:18:51.476Z,99723.25
2024-02-28T12:22:55.125Z,99727.06
2024-02-28T12:26:57.380Z,99726.56
2024-02-28T12:30:59.684Z,99729.03
2024-02-28T12:35:01.984Z,99727.97
2024-02-28T12:39:05.601Z,99719.38
2024-02-28T12:43:07.791Z,99736.59
2024-02-28T12:47:10.000Z,99722.19
2024-02-28T12:51:21.541Z,99727.94
2024-02-28T12:55:25.106Z,99727.00
2024-02-28T12:59:27.430Z,99725.19
2024-02-28T13:03:29.703Z,99721.03
2024-02-28T13:07:31.926Z,99730.59
2024-02-28T13:11:36.200Z,99724.00
2024-02-28T13:15:38.419Z,99730.19
2024-02-28T13:19:40.350Z,99729.56
2024-02-28T13:23:42.461Z,99726.06
2024-02-28T13:27:46.318Z,99724.94
2024-02-28T13:31:48.529Z,99729.63
2024-02-28T13:35:50.562Z,99725.25
2024-02-28T13:39:52.662Z,99716.94
2024-02-28T13:43:56.320Z,99726.84
2024-02-28T13:47:58.473Z,99718.78
2024-02-28T13:52:00.810Z,99721.50
2024-02-28T13:56:02.978Z,99720.50
2024-02-28T14:00:08.200Z,99722.16
2024-02-28T14:04:09.806Z,99712.94
2024-02-28T14:08:11.872Z,99716.06
2024-02-28T14:12:14.996Z,99723.00
2024-02-28T14:16:18.687Z,99725.06
2024-02-28T14:20:20.363Z,99706.53
2024-02-28T14:24:22.293Z,99711.28
2024-02-28T14:28:24.449Z,99700.81
2024-02-28T14:32:28.167Z,99696.91
2024-02-28T14:36:30.238Z,99696.16
2024-02-28T14:40:32.254Z,99692.63
2024-02-28T14:44:34.947Z,99697.00
2024-02-28T14:48:38.585Z,99695.34
2024-02-28T14:52:42.116Z,99710.03
2024-02-28T14:56:44.271Z,99700.53
2024-02-28T15:00:46.265Z,99688.03
2024-02-28T15:04:49.914Z,99695.59
2024-02-28T15:08:52.150Z,99694.63
2024-02-28T15:12:54.545Z,99688.34
2024-02-28T15:16:57.028Z,99691.28
2024-02-28T15:21:02.632Z,99696.97
2024-02-28T15:25:06.114Z,99693.84
2024-02-28T15:29:08.229Z,99691.75
2024-02-28T15:33:10.410Z,99691.88
2024-02-28T15:37:13.801Z,99693.72
2024-02-28T15:41:16.055Z,99687.41
2024-02-28T15:45:18.510Z,99696.94
2024-02-28T15:49:28.466Z,99697.50
2024-02-28T15:53:36.982Z,99697.66
2024-02-28T15:57:39.154Z,99697.91
2024-02-28T16:01:41.752Z,99696.22
2024-02-28T16:05:43.725Z,99692.09
2024-02-28T16:09:47.289Z,99696.44
2024-02-28T16:13:49.399Z,99692.06
2024-02-28T16:17:51.497Z,99703.16
2024-02-28T16:21:53.633Z,99711.84
2024-02-28T16:25:57.044Z,99717.25
2024-02-28T16:29:59.180Z,99706.13
2024-02-28T16:34:01.338Z,99713.53
2024-02-28T16:38:03.502Z,99716.84
2024-02-28T16:42:07.376Z,99710.69
2024-02-28T16:46:09.507Z,99713.84
2024-02-28T16:50:11.528Z,99715.28
2024-02-28T16:54:13.654Z,99720.13
2024-02-28T16:58:17.242Z,99729.00
2024-02-28T17:02:19.334Z,99726.00
2024-02-28T17:06:21.965Z,99738.59
2024-02-28T17:10:24.466Z,99733.31
2024-02-28T17:14:28.290Z,99729.66
2024-02-28T17:18:30.957Z,99734.25
2024-02-28T17:22:33.089Z,99735.50
2024-02-28T17:26:37.187Z,99748.94
2024-02-28T17:30:41.834Z,99752.72
2024-02-28T17:34:44.089Z,99756.97
2024-02-28T17:38:46.345Z,99758.22
2024-02-28T17:42:48.614Z,99760.59
2024-02-28T17:46:52.046Z,99757.44
2024-02-28T17:50:53.987Z,99764.66
2024-02-28T17:54:55.804Z,99758.28
2024-02-28T17:58:57.889Z,99770.41
2024-02-28T18:03:03.891Z,99764.13
2024-02-28T18:07:09.402Z,99759.28
2024-02-28T18:11:11.566Z,99768.38
2024-02-28T18:15:13.537Z,99764.50
2024-02-28T18:19:16.954Z,99766.22
2024-02-28T18:23:27.308Z,99768.56
2024-02-28T18:27:33.200Z,99763.00
2024-02-28T18:31:35.356Z,99773.59
2024-02-28T18:35:38.838Z,99776.13
2024-02-28T18:39:41.245Z,99776.66
2024-02-28T18:43:44.203Z,99773.13
2024-02-28T18:47:46.342Z,99771.94
2024-02-28T18:51:49.878Z,99782.50
2024-02-28T18:55:54.447Z,99777.47
2024-02-28T18:59:56.628Z,99775.28
2024-02-28T19:03:58.735Z,99786.72
2024-02-28T19:08:02.495Z,99787.88
2024-02-28T19:12:04.736Z,99794.13
2024-02-28T19:16:07.107Z,99797.97
2024-02-28T19:20:09.898Z,99796.28
2024-02-28T19:24:12.864Z,99799.28
2024-02-28T19:28:14.660Z,99795.16
2024-02-28T19:32:16.433Z,99791.66
2024-02-28T19:36:18.151Z,99793.78
2024-02-28T19:40:21.268Z,99787.66
2024-02-28T19:44:23.291Z,99783.94
2024-02-28T19:48:25.061Z,99784.00
2024-02-28T19:52:26.912Z,99788.72
2024-02-28T19:56:29.990Z,99778.53
2024-02-28T20:00:31.834Z,99776.16
2024-02-28T20:04:33.460Z,99782.19
2024-02-28T20:08:35.236Z,99790.91
2024-02-28T20:12:41.605Z,99790.91
2024-02-28T20:16:43.416Z,99777.81
2024-02-28T20:20:45.457Z,99780.50
2024-02-28T20:24:47.245Z,99783.84
2024-02-28T20:28:50.631Z,99782.72
2024-02-28T20:32:52.370Z,99770.13
2024-02-28T20:36:54.208Z,99778.25
2024-02-28T20:40:55.874Z,99776.25
2024-02-28T20:44:58.880Z,99773.50
2024-02-28T20:49:00.731Z,99780.72
2024-02-28T20:53:02.455Z,99773.81
2024-02-28T20:57:12.434Z,99765.09
2024-02-28T21:01:19.802Z,99772.53
2024-02-28T21:05:21.468Z,99764.63
2024-02-28T21:09:23.946Z,99778.63
2024-02-28T21:13:25.664Z,99772.56
2024-02-28T21:17:29.647Z,99764.81
2024-02-28T21:21:31.625Z,99754.03
2024-02-28T21:25:33.337Z,99764.84
2024-02-28T21:29:35.505Z,99754.09
2024-02-28T21:33:38.892Z,99756.16
2024-02-28T21:37:40.856Z,99759.25
2024-02-28T21:41:42.690Z,99762.81
2024-02-28T21:45:44.485Z,99753.25
2024-02-28T21:49:47.735Z,99757.13
2024-02-28T21:53:49.510Z,99741.16
2024-02-28T21:57:51.209Z,99745.81
2024-02-28T22:01:52.911Z,99739.78
2024-02-28T22:05:56.014Z,99738.09
2024-02-28T22:09:58.040Z,99751.56
2024-02-28T22:13:59.671Z,99736.41
2024-02-28T22:18:01.542Z,99734.06
2024-02-28T22:22:05.152Z,99743.13
2024-02-28T22:26:06.933Z,99733.56
2024-02-28T22:30:09.149Z,99737.59
2024-02-28T22:34:11.558Z,99735.41
2024-02-28T22:38:15.358Z,99728.38
2024-02-28T22:42:17.903Z,99725.69
2024-02-28T22:46:20.334Z,99729.72
2024-02-28T22:50:22.177Z,99735.44
2024-02-28T22:54:25.469Z,99735.09
2024-02-28T22:58:28.302Z,99726.72
2024-02-28T23:02:30.581Z,99719.81
2024-02-28T23:06:32.285Z,99728.91
2024-02-28T23:10:35.655Z,99727.41
2024-02-28T23:14:37.545Z,99730.41
2024-02-28T23:18:39.549Z,99731.41
2024-02-28T23:22:41.456Z,99725.38
2024-02-28T23:26:45.212Z,99725.03
2024-02-28T23:30:47.309Z,99720.66
2024-02-28T23:34:49.508Z,99731.88
2024-02-28T23:38:51.738Z,99708.38
2024-02-28T23:42:55.177Z,99709.84
2024-02-28T23:46:57.818Z,99713.81
2024-02-28T23:51:00.169Z,99706.69
2024-02-28T23:55:02.122Z,99709.34
2024-02-28T23:59:05.561Z,99704.97
